createdAt,value
2022-10-19T00:01:21.554Z,21.10
2022-10-19T00:03:51.688Z,21.95
2022-10-19T00:06:27.643Z,22.83
2022-10-19T00:09:15.953Z,23.25
2022-10-19T00:11:48.397Z,22.67
2022-10-19T00:14:20.943Z,19.10
2022-10-19T00:16:49.826Z,22.02
2022-10-19T00:19:25.293Z,30.52
2022-10-19T00:21:52.250Z,24.50
2022-10-19T00:24:21.828Z,30.27
2022-10-19T00:26:51.127Z,28.98
2022-10-19T00:29:17.857Z,31.17
2022-10-19T00:31:46.800Z,29.50
2022-10-19T00:34:13.422Z,27.27
2022-10-19T00:36:41.816Z,32.88
2022-10-19T00:39:14.264Z,34.88
2022-10-19T00:41:41.843Z,31.13
2022-10-19T00:44:16.742Z,32.28
2022-10-19T00:46:48.734Z,28.35
2022-10-19T00:49:38.719Z,38.10
2022-10-19T00:52:10.475Z,34.28
2022-10-19T00:54:39.961Z,35.28
2022-10-19T00:57:07.522Z,33.47
2022-10-19T00:59:36.212Z,31.90
2022-10-19T01:02:07.475Z,37.60
2022-10-19T01:04:36.526Z,33.85
2022-10-19T01:07:07.959Z,35.17
2022-10-19T01:09:34.906Z,36.33
2022-10-19T01:12:17.252Z,39.05
2022-10-19T01:15:15.058Z,39.30
2022-10-19T01:17:54.788Z,35.60
2022-10-19T01:20:47.532Z,32.60
2022-10-19T01:23:38.396Z,34.53
2022-10-19T01:26:38.787Z,35.90
2022-10-19T01:29:35.685Z,34.72
2022-10-19T01:32:19.565Z,33.70
2022-10-19T01:35:01.752Z,32.25
2022-10-19T01:37:49.693Z,32.60
2022-10-19T01:40:35.749Z,30.27
2022-10-19T01:43:02.415Z,31.45
2022-10-19T01:45:31.893Z,34.20
2022-10-19T01:48:21.877Z,32.15
2022-10-19T01:50:58.842Z,32.53
2022-10-19T01:53:28.055Z,28.88
2022-10-19T01:55:58.893Z,29.00
2022-10-19T01:58:29.557Z,32.45
2022-10-19T02:00:58.637Z,34.10
2022-10-19T02:03:28.388Z,32.45
2022-10-19T02:05:56.844Z,34.88
2022-10-19T02:08:35.846Z,32.58
2022-10-19T02:11:04.247Z,31.48
2022-10-19T02:13:32.016Z,31.27
2022-10-19T02:16:05.495Z,30.00
2022-10-19T02:18:40.119Z,28.77
2022-10-19T02:21:07.399Z,31.00
2022-10-19T02:23:34.356Z,33.90
2022-10-19T02:26:01.120Z,28.65
2022-10-19T02:28:29.835Z,41.25
2022-10-19T02:30:58.274Z,32.10
2022-10-19T02:33:25.885Z,32.47
2022-10-19T02:35:55.318Z,34.95
2022-10-19T02:38:23.797Z,31.73
2022-10-19T02:41:16.972Z,35.85
2022-10-19T02:43:48.685Z,30.48
2022-10-19T02:46:47.254Z,33.72
2022-10-19T02:49:14.555Z,34.90
2022-10-19T02:51:58.163Z,32.17
2022-10-19T02:54:24.911Z,34.40
2022-10-19T02:56:54.119Z,32.28
2022-10-19T02:59:20.842Z,40.33
2022-10-19T03:01:49.906Z,30.10
2022-10-19T03:04:16.928Z,36.00
2022-10-19T03:06:46.406Z,34.20
2022-10-19T03:09:13.107Z,32.28
2022-10-19T03:11:39.783Z,34.95
2022-10-19T03:14:06.417Z,33.58
2022-10-19T03:16:33.075Z,34.97
2022-10-19T03:18:59.713Z,36.55
2022-10-19T03:21:26.355Z,36.17
2022-10-19T03:23:52.971Z,33.92
2022-10-19T03:26:19.942Z,37.50
2022-10-19T03:28:46.627Z,43.55
2022-10-19T03:31:13.346Z,43.85
2022-10-19T03:33:39.991Z,42.22
2022-10-19T03:36:37.240Z,39.53
2022-10-19T03:39:10.692Z,39.53
2022-10-19T03:41:38.410Z,46.92
2022-10-19T03:44:06.610Z,44.97
2022-10-19T03:46:33.963Z,50.65
2022-10-19T03:49:00.808Z,46.53
2022-10-19T03:51:29.762Z,42.13
2022-10-19T03:54:02.141Z,46.47
2022-10-19T03:56:34.033Z,47.85
2022-10-19T03:59:03.010Z,47.55
2022-10-19T04:01:35.871Z,43.97
2022-10-19T04:04:10.056Z,46.10
2022-10-19T04:06:39.429Z,44.70
2022-10-19T04:09:08.085Z,46.28
2022-10-19T04:11:35.910Z,46.17
2022-10-19T04:14:03.719Z,46.75
2022-10-19T04:16:33.479Z,52.55
2022-10-19T04:19:03.327Z,48.90
2022-10-19T04:21:31.009Z,53.55
2022-10-19T04:24:00.044Z,56.75
2022-10-19T04:26:27.279Z,53.55
2022-10-19T04:28:54.220Z,56.40
2022-10-19T04:31:20.896Z,53.88
2022-10-19T04:33:47.533Z,58.80
2022-10-19T04:36:14.188Z,54.58
2022-10-19T04:38:40.936Z,57.22
2022-10-19T04:41:19.171Z,62.55
2022-10-19T04:43:46.332Z,64.80
2022-10-19T04:46:15.564Z,58.30
2022-10-19T04:48:42.725Z,60.78
2022-10-19T04:51:10.584Z,57.42
2022-10-19T04:53:39.096Z,57.53
2022-10-19T04:56:07.893Z,54.55
2022-10-19T04:58:35.338Z,66.53
2022-10-19T05:01:16.493Z,55.92
2022-10-19T05:03:43.664Z,56.33
2022-10-19T05:06:11.364Z,54.22
2022-10-19T05:08:38.457Z,57.70
2022-10-19T05:11:14.329Z,50.58
2022-10-19T05:13:41.947Z,52.22
2022-10-19T05:16:12.363Z,47.92
2022-10-19T05:18:42.141Z,44.53
2022-10-19T05:21:11.407Z,43.95
2022-10-19T05:23:38.975Z,48.83
2022-10-19T05:26:07.346Z,48.35
2022-10-19T05:28:34.993Z,53.60
2022-10-19T05:31:16.998Z,50.30
2022-10-19T05:33:44.419Z,44.22
2022-10-19T05:36:22.551Z,51.03
2022-10-19T05:38:50.520Z,41.63
2022-10-19T05:41:17.760Z,45.97
2022-10-19T05:43:47.412Z,52.05
2022-10-19T05:46:18.216Z,43.03
2022-10-19T05:48:45.981Z,48.63
2022-10-19T05:51:15.587Z,50.00
2022-10-19T05:53:42.737Z,53.97
2022-10-19T05:56:13.617Z,65.10
2022-10-19T05:58:43.214Z,65.22
2022-10-19T06:01:10.418Z,70.57
2022-10-19T06:03:37.034Z,61.75
2022-10-19T06:06:05.495Z,60.95
2022-10-19T06:08:34.833Z,59.30
2022-10-19T06:11:07.706Z,57.30
2022-10-19T06:13:37.040Z,65.43
2022-10-19T06:16:05.538Z,66.07
2022-10-19T06:18:32.309Z,59.10
2022-10-19T06:21:04.389Z,60.65
2022-10-19T06:23:34.832Z,64.43
2022-10-19T06:26:12.629Z,64.75
2022-10-19T06:28:41.105Z,54.90
2022-10-19T06:31:09.191Z,59.08
2022-10-19T06:33:39.303Z,59.70
2022-10-19T06:36:08.219Z,64.18
2022-10-19T06:38:34.932Z,64.47
2022-10-19T06:41:01.779Z,65.55
2022-10-19T06:43:28.815Z,59.78
2022-10-19T06:45:56.001Z,62.30
2022-10-19T06:48:22.975Z,56.28
2022-10-19T06:51:00.611Z,49.35
2022-10-19T06:53:30.343Z,49.25
2022-10-19T06:56:01.984Z,53.33
2022-10-19T06:58:30.777Z,52.40
2022-10-19T07:01:01.160Z,53.83
2022-10-19T07:03:28.965Z,49.95
2022-10-19T07:05:57.750Z,52.50
2022-10-19T07:08:25.074Z,47.97
2022-10-19T07:11:00.240Z,52.58
2022-10-19T07:13:27.850Z,47.17
2022-10-19T07:16:06.787Z,50.13
2022-10-19T07:18:39.126Z,52.92
2022-10-19T07:21:14.476Z,52.45
2022-10-19T07:23:44.924Z,50.65
2022-10-19T07:26:23.931Z,55.60
2022-10-19T07:28:51.033Z,54.72
2022-10-19T07:31:20.596Z,48.00
2022-10-19T07:33:51.776Z,47.20
2022-10-19T07:36:20.954Z,42.75
2022-10-19T07:38:50.247Z,48.38
2022-10-19T07:41:19.091Z,45.97
2022-10-19T07:43:47.467Z,41.38
2022-10-19T07:46:19.895Z,46.92
2022-10-19T07:48:49.371Z,43.40
2022-10-19T07:51:17.339Z,41.88
2022-10-19T07:53:44.671Z,48.90
2022-10-19T07:56:18.820Z,47.63
2022-10-19T07:58:45.612Z,43.47
2022-10-19T08:01:13.272Z,52.33
2022-10-19T08:04:42.853Z,51.78
2022-10-19T08:06:33.991Z,52.60
2022-10-19T08:09:00.965Z,47.35
2022-10-19T08:11:35.417Z,46.78
2022-10-19T08:14:05.146Z,45.53
2022-10-19T08:16:40.276Z,47.40
2022-10-19T08:19:12.306Z,43.78
2022-10-19T08:21:41.217Z,32.95
2022-10-19T08:24:08.616Z,32.72
2022-10-19T08:26:38.797Z,26.70
2022-10-19T08:29:09.449Z,24.45
2022-10-19T08:31:36.740Z,26.13
2022-10-19T08:34:04.194Z,25.00
2022-10-19T08:36:35.542Z,23.40
2022-10-19T08:39:04.308Z,18.88
2022-10-19T08:41:57.105Z,23.27
2022-10-19T08:44:45.085Z,27.92
2022-10-19T08:47:31.332Z,23.40
2022-10-19T08:50:01.846Z,24.30
2022-10-19T08:52:37.744Z,25.10
2022-10-19T08:55:15.239Z,27.10
2022-10-19T08:58:03.206Z,26.40
2022-10-19T09:00:58.550Z,28.13
2022-10-19T09:04:03.900Z,28.95
2022-10-19T09:07:08.785Z,30.45
2022-10-19T09:09:42.253Z,22.33
2022-10-19T09:12:14.697Z,28.38
2022-10-19T09:14:46.452Z,23.30
2022-10-19T09:17:16.949Z,22.67
2022-10-19T09:19:46.118Z,30.23
2022-10-19T09:22:37.345Z,20.25
2022-10-19T09:25:12.874Z,25.48
2022-10-19T09:27:43.544Z,32.38
2022-10-19T09:30:22.069Z,26.92
2022-10-19T09:33:00.548Z,23.25
2022-10-19T09:35:39.400Z,23.90
2022-10-19T09:38:07.678Z,23.05
2022-10-19T09:40:35.542Z,17.30
2022-10-19T09:43:21.470Z,21.58
2022-10-19T09:46:00.874Z,20.17
2022-10-19T09:48:42.279Z,16.92
2022-10-19T09:51:14.026Z,17.30
2022-10-19T09:53:50.861Z,18.38
2022-10-19T09:56:27.981Z,14.63
2022-10-19T09:58:57.578Z,13.38
2022-10-19T10:01:43.942Z,15.57
2022-10-19T10:04:16.223Z,15.52
2022-10-19T10:06:44.726Z,15.48
2022-10-19T10:09:19.810Z,20.23
2022-10-19T10:11:49.583Z,17.80
2022-10-19T10:14:32.605Z,16.58
2022-10-19T10:17:14.993Z,16.17
2022-10-19T10:22:53.048Z,16.13
2022-10-19T10:25:20.301Z,17.08
2022-10-19T10:28:20.376Z,17.17
2022-10-19T10:30:49.050Z,26.42
2022-10-19T10:33:33.372Z,23.05
2022-10-19T10:36:10.955Z,16.60
2022-10-19T10:38:40.807Z,19.45
2022-10-19T10:41:28.953Z,24.63
2022-10-19T10:44:06.755Z,20.98
2022-10-19T10:46:55.600Z,17.90
2022-10-19T10:49:52.850Z,22.70
2022-10-19T10:52:20.146Z,21.05
2022-10-19T10:55:15.408Z,18.45
2022-10-19T10:57:49.874Z,18.70
2022-10-19T11:00:22.155Z,20.33
2022-10-19T11:03:21.940Z,18.40
2022-10-19T11:05:53.230Z,19.40
2022-10-19T11:08:35.866Z,18.50
2022-10-19T11:11:21.613Z,16.20
2022-10-19T11:14:16.048Z,19.20
2022-10-19T11:19:18.498Z,19.83
2022-10-19T11:22:02.337Z,18.60
2022-10-19T11:24:47.820Z,16.85
2022-10-19T11:27:21.643Z,16.98
2022-10-19T11:30:02.170Z,18.90
2022-10-19T11:32:41.340Z,15.32
2022-10-19T11:35:24.839Z,16.90
2022-10-19T11:38:21.296Z,19.40
2022-10-19T11:41:18.192Z,20.90
2022-10-19T11:43:54.502Z,15.48
2022-10-19T11:46:29.924Z,17.77
2022-10-19T11:49:30.356Z,15.38
2022-10-19T11:52:12.017Z,13.10
2022-10-19T11:55:02.133Z,17.35
2022-10-19T11:58:13.382Z,15.25
2022-10-19T12:01:05.922Z,14.13
2022-10-19T12:04:11.958Z,12.57
2022-10-19T12:07:19.867Z,14.68
2022-10-19T12:10:05.887Z,11.00
2022-10-19T12:12:40.446Z,10.43
2022-10-19T12:15:28.857Z,10.65
2022-10-19T12:18:01.832Z,11.63
2022-10-19T12:20:36.460Z,7.97
2022-10-19T12:23:22.890Z,9.27
2022-10-19T12:25:50.773Z,12.20
2022-10-19T12:28:39.149Z,10.75
2022-10-19T12:31:06.839Z,14.27
2022-10-19T12:33:36.166Z,11.90
2022-10-19T12:36:12.041Z,9.85
2022-10-19T12:39:01.005Z,10.93
2022-10-19T12:41:36.442Z,6.40
2022-10-19T12:44:27.036Z,14.02
2022-10-19T12:47:00.883Z,10.10
2022-10-19T12:49:33.548Z,11.95
2022-10-19T12:52:03.384Z,13.50
2022-10-19T12:54:36.202Z,5.20
2022-10-19T12:57:04.474Z,6.75
2022-10-19T12:59:38.166Z,10.88
2022-10-19T13:02:23.741Z,9.52
2022-10-19T13:04:54.486Z,8.75
2022-10-19T13:07:21.440Z,9.45
2022-10-19T13:09:49.062Z,10.27
2022-10-19T13:12:33.167Z,10.73
2022-10-19T13:15:01.934Z,6.35
2022-10-19T13:17:50.618Z,6.85
2022-10-19T13:20:24.650Z,7.18
2022-10-19T13:23:11.266Z,9.65
2022-10-19T13:25:40.935Z,7.53
2022-10-19T13:28:07.649Z,8.07
2022-10-19T13:30:41.641Z,6.53
2022-10-19T13:33:43.896Z,7.72
2022-10-19T13:36:11.622Z,10.38
2022-10-19T13:38:43.028Z,12.55
2022-10-19T13:41:27.233Z,9.95
2022-10-19T13:44:04.072Z,8.75
2022-10-19T13:46:30.703Z,8.68
2022-10-19T13:49:41.081Z,6.25
2022-10-19T13:52:26.138Z,11.57
2022-10-19T13:55:32.519Z,7.43
2022-10-19T13:58:36.211Z,7.28
2022-10-19T14:01:21.003Z,12.23
2022-10-19T14:03:53.661Z,11.80
2022-10-19T14:06:42.130Z,8.63
2022-10-19T14:09:33.772Z,13.27
2022-10-19T14:12:08.095Z,6.60
2022-10-19T14:14:45.416Z,14.70
2022-10-19T14:17:27.899Z,8.68
2022-10-19T14:19:57.801Z,7.57
2022-10-19T14:22:34.668Z,8.05
2022-10-19T14:25:32.764Z,6.53
2022-10-19T14:28:06.653Z,9.25
2022-10-19T14:30:36.004Z,5.97
2022-10-19T14:33:08.946Z,6.93
2022-10-19T14:35:41.411Z,10.40
2022-10-19T14:38:16.600Z,7.82
2022-10-19T14:40:45.807Z,9.73
2022-10-19T14:43:27.880Z,8.10
2022-10-19T14:46:06.784Z,5.30
2022-10-19T14:48:38.969Z,10.52
2022-10-19T14:51:26.149Z,8.18
2022-10-19T14:54:00.630Z,5.78
2022-10-19T14:56:52.265Z,9.27
2022-10-19T15:02:28.661Z,7.07
2022-10-19T15:04:58.555Z,8.77
2022-10-19T15:07:41.584Z,7.68
2022-10-19T15:10:20.916Z,3.88
2022-10-19T15:12:52.485Z,6.65
2022-10-19T15:15:25.643Z,9.93
2022-10-19T15:17:57.330Z,7.68
2022-10-19T15:20:43.970Z,6.07
2022-10-19T15:23:39.686Z,10.30
2022-10-19T15:26:29.035Z,9.07
2022-10-19T15:29:19.219Z,8.82
2022-10-19T15:31:45.958Z,5.53
2022-10-19T15:34:29.059Z,8.63
2022-10-19T15:37:03.520Z,11.50
2022-10-19T15:39:39.756Z,9.48
2022-10-19T15:42:37.562Z,6.45
2022-10-19T15:45:25.995Z,7.50
2022-10-19T15:48:10.925Z,9.50
2022-10-19T15:50:52.350Z,11.23
2022-10-19T15:53:22.671Z,11.23
2022-10-19T15:55:49.615Z,13.98
2022-10-19T15:58:16.351Z,10.88
2022-10-19T16:00:43.614Z,9.93
2022-10-19T16:03:10.342Z,10.73
2022-10-19T16:05:37.324Z,9.38
2022-10-19T16:08:07.816Z,12.30
2022-10-19T16:10:36.816Z,12.32
2022-10-19T16:13:05.965Z,10.15
2022-10-19T16:15:35.215Z,11.95
2022-10-19T16:18:01.958Z,12.00
2022-10-19T16:20:30.042Z,9.50
2022-10-19T16:22:59.786Z,12.32
2022-10-19T16:25:26.493Z,8.70
2022-10-19T16:27:53.125Z,8.23
2022-10-19T16:30:19.941Z,20.08
2022-10-19T16:32:51.876Z,10.35
2022-10-19T16:35:18.539Z,12.23
2022-10-19T16:37:45.356Z,13.30
2022-10-19T16:40:12.236Z,13.40
2022-10-19T16:42:41.099Z,14.20
2022-10-19T16:45:08.490Z,8.77
2022-10-19T16:47:35.109Z,9.32
2022-10-19T16:50:03.159Z,10.00
2022-10-19T16:52:34.097Z,12.10
2022-10-19T16:55:03.607Z,11.88
2022-10-19T16:57:30.271Z,10.23
2022-10-19T16:59:59.135Z,9.77
2022-10-19T17:02:25.988Z,6.07
2022-10-19T17:04:53.106Z,7.10
2022-10-19T17:07:19.837Z,6.55
2022-10-19T17:09:47.911Z,7.40
2022-10-19T17:12:17.132Z,7.38
2022-10-19T17:14:43.903Z,10.02
2022-10-19T17:17:17.117Z,6.55
2022-10-19T17:19:43.766Z,9.38
2022-10-19T17:22:10.482Z,11.07
2022-10-19T17:24:39.592Z,8.15
2022-10-19T17:27:06.369Z,6.38
2022-10-19T17:29:33.157Z,9.20
2022-10-19T17:31:59.942Z,7.65
2022-10-19T17:34:27.348Z,6.82
2022-10-19T17:36:54.147Z,11.48
2022-10-19T17:39:25.739Z,13.77
2022-10-19T17:42:01.217Z,11.93
2022-10-19T17:44:30.527Z,8.65
2022-10-19T17:46:57.505Z,10.35
2022-10-19T17:49:24.330Z,11.80
2022-10-19T17:51:52.778Z,11.13
2022-10-19T17:54:28.097Z,11.25
2022-10-19T17:56:55.220Z,17.00
2022-10-19T17:59:30.259Z,10.43
2022-10-19T18:02:01.954Z,10.13
2022-10-19T18:04:28.700Z,11.25
2022-10-19T18:06:55.413Z,8.45
2022-10-19T18:09:22.097Z,8.35
2022-10-19T18:11:51.122Z,8.52
2022-10-19T18:14:17.822Z,6.30
2022-10-19T18:16:46.413Z,9.23
2022-10-19T18:19:15.144Z,8.10
2022-10-19T18:21:44.480Z,9.90
2022-10-19T18:24:15.318Z,13.10
2022-10-19T18:26:42.831Z,11.27
2022-10-19T18:29:17.847Z,7.85
2022-10-19T18:31:52.181Z,6.03
2022-10-19T18:34:24.253Z,8.68
2022-10-19T18:36:54.429Z,10.48
2022-10-19T18:39:22.397Z,10.30
2022-10-19T18:41:54.489Z,13.52
2022-10-19T18:44:26.591Z,12.38
2022-10-19T18:46:55.519Z,12.30
2022-10-19T18:49:22.315Z,11.48
2022-10-19T18:51:54.110Z,11.95
2022-10-19T18:54:22.899Z,10.38
2022-10-19T18:56:49.620Z,16.08
2022-10-19T18:59:16.748Z,13.70
2022-10-19T19:01:46.044Z,10.15
2022-10-19T19:04:15.218Z,18.77
2022-10-19T19:06:44.092Z,14.93
2022-10-19T19:09:14.466Z,11.50
2022-10-19T19:11:41.473Z,16.90
2022-10-19T19:14:21.101Z,12.15
2022-10-19T19:16:47.999Z,19.17
2022-10-19T19:19:16.626Z,12.52
2022-10-19T19:21:44.419Z,16.42
2022-10-19T19:24:17.316Z,17.23
2022-10-19T19:26:48.343Z,17.45
2022-10-19T19:29:21.415Z,17.70
2022-10-19T19:31:51.367Z,16.03
2022-10-19T19:34:18.421Z,17.38
2022-10-19T19:36:48.632Z,20.75
2022-10-19T19:39:19.281Z,20.48
2022-10-19T19:41:48.979Z,21.63
2022-10-19T19:44:16.156Z,24.67
2022-10-19T19:46:43.271Z,19.25
2022-10-19T19:49:10.095Z,22.58
2022-10-19T19:51:38.964Z,28.65
2022-10-19T19:54:05.761Z,20.38
2022-10-19T19:56:32.868Z,22.42
2022-10-19T19:59:03.508Z,27.15
2022-10-19T20:01:31.284Z,25.38
2022-10-19T20:03:59.391Z,24.85
2022-10-19T20:06:26.263Z,26.25
2022-10-19T20:08:54.425Z,29.95
2022-10-19T20:11:24.232Z,29.70
2022-10-19T20:13:51.074Z,24.52
2022-10-19T20:16:23.921Z,22.45
2022-10-19T20:19:01.273Z,23.40
2022-10-19T20:21:28.070Z,26.60
2022-10-19T20:23:59.569Z,21.70
2022-10-19T20:26:26.821Z,26.42
2022-10-19T20:28:53.686Z,28.90
2022-10-19T20:31:23.640Z,25.15
2022-10-19T20:33:50.619Z,24.52
2022-10-19T20:36:28.761Z,23.08
2022-10-19T20:38:58.012Z,23.50
2022-10-19T20:41:29.548Z,23.45
2022-10-19T20:43:56.984Z,22.50
2022-10-19T20:46:29.135Z,25.42
2022-10-19T20:48:59.500Z,24.77
2022-10-19T20:51:32.515Z,21.27
2022-10-19T20:54:01.574Z,24.88
2022-10-19T20:56:34.581Z,25.35
2022-10-19T20:59:25.153Z,25.87
2022-10-19T21:01:54.143Z,23.13
2022-10-19T21:04:20.913Z,20.52
2022-10-19T21:06:49.821Z,25.63
2022-10-19T21:09:22.129Z,22.83
2022-10-19T21:11:50.701Z,23.73
2022-10-19T21:14:28.223Z,27.65
2022-10-19T21:16:59.258Z,22.80
2022-10-19T21:19:29.739Z,22.90
2022-10-19T21:22:01.611Z,22.85
2022-10-19T21:24:32.299Z,26.85
2022-10-19T21:27:05.214Z,31.52
2022-10-19T21:29:34.072Z,26.03
2022-10-19T21:32:00.839Z,22.83
2022-10-19T21:34:30.339Z,24.25
2022-10-19T21:36:59.534Z,28.92
2022-10-19T21:39:26.211Z,30.10
2022-10-19T21:41:53.254Z,30.00
2022-10-19T21:44:22.843Z,27.27
2022-10-19T21:46:50.141Z,25.88
2022-10-19T21:49:17.473Z,25.75
2022-10-19T21:51:52.027Z,26.80
2022-10-19T21:54:21.370Z,24.67
2022-10-19T21:56:49.005Z,28.48
2022-10-19T21:59:16.464Z,28.92
2022-10-19T22:01:43.293Z,27.98
2022-10-19T22:04:16.232Z,26.85
2022-10-19T22:06:43.173Z,27.02
2022-10-19T22:09:19.528Z,24.73
2022-10-19T22:11:48.975Z,25.65
2022-10-19T22:14:16.774Z,28.80
2022-10-19T22:16:44.073Z,26.08
2022-10-19T22:19:11.386Z,26.73
2022-10-19T22:24:13.862Z,24.77
2022-10-19T22:26:44.189Z,33.65
2022-10-19T22:29:11.170Z,25.33
2022-10-19T22:31:38.703Z,31.10
2022-10-19T22:34:08.580Z,28.83
2022-10-19T22:36:35.811Z,27.40
2022-10-19T22:39:02.621Z,27.63
2022-10-19T22:41:29.255Z,32.70
2022-10-19T22:43:55.908Z,27.83
2022-10-19T22:46:22.615Z,28.05
2022-10-19T22:48:49.224Z,26.27
2022-10-19T22:51:15.906Z,27.42
2022-10-19T22:53:42.555Z,28.17
2022-10-19T22:56:11.674Z,28.58
2022-10-19T22:58:41.149Z,26.08
2022-10-19T23:01:13.002Z,27.42
2022-10-19T23:03:40.400Z,27.33
2022-10-19T23:06:12.115Z,27.52
2022-10-19T23:08:39.018Z,29.15
2022-10-19T23:11:06.147Z,32.17
2022-10-19T23:13:35.203Z,31.75
2022-10-19T23:16:02.010Z,26.27
2022-10-19T23:18:37.230Z,35.35
2022-10-19T23:21:10.250Z,24.30
2022-10-19T23:23:39.617Z,29.93
2022-10-19T23:26:10.564Z,31.63
2022-10-19T23:28:39.505Z,26.50
2022-10-19T23:31:12.493Z,30.65
2022-10-19T23:33:39.383Z,28.10
2022-10-19T23:36:14.529Z,27.60
2022-10-19T23:38:42.806Z,30.50
2022-10-19T23:41:09.714Z,25.58
2022-10-19T23:46:08.903Z,28.52
2022-10-19T23:48:35.819Z,36.38
2022-10-19T23:51:05.666Z,31.90
2022-10-19T23:53:35.749Z,34.50
2022-10-19T23:56:12.698Z,28.15
2022-10-19T23:58:39.403Z,31.85
